sensor_id;sensor_type;location;lat;lon;timestamp;P1;durP1;ratioP1;P2;durP2;ratioP2
51838;SDS011;37886;53.174;6.368;2022-10-16T00:01:24;12.48;;;2.35;;
51838;SDS011;37886;53.174;6.368;2022-10-16T00:03:58;8.13;;;2.50;;
51838;SDS011;37886;53.174;6.368;2022-10-16T00:06:25;8.95;;;2.47;;
51838;SDS011;37886;53.174;6.368;2022-10-16T00:08:52;9.70;;;2.38;;
51838;SDS011;37886;53.174;6.368;2022-10-16T00:11:22;12.52;;;2.60;;
51838;SDS011;37886;53.174;6.368;2022-10-16T00:13:55;11.95;;;2.67;;
51838;SDS011;37886;53.174;6.368;2022-10-16T00:16:22;6.32;;;2.15;;
51838;SDS011;37886;53.174;6.368;2022-10-16T00:18:48;10.68;;;2.78;;
51838;SDS011;37886;53.174;6.368;2022-10-16T00:21:18;11.10;;;3.20;;
51838;SDS011;37886;53.174;6.368;2022-10-16T00:23:46;14.60;;;2.38;;
51838;SDS011;37886;53.174;6.368;2022-10-16T00:26:20;19.05;;;2.90;;
51838;SDS011;37886;53.174;6.368;2022-10-16T00:28:49;8.93;;;2.38;;
51838;SDS011;37886;53.174;6.368;2022-10-16T00:31:17;10.45;;;2.17;;
51838;SDS011;37886;53.174;6.368;2022-10-16T00:33:44;12.68;;;2.30;;
51838;SDS011;37886;53.174;6.368;2022-10-16T00:36:11;8.73;;;2.20;;
51838;SDS011;37886;53.174;6.368;2022-10-16T00:38:38;10.48;;;2.20;;
51838;SDS011;37886;53.174;6.368;2022-10-16T00:41:05;12.80;;;3.28;;
51838;SDS011;37886;53.174;6.368;2022-10-16T00:43:40;10.25;;;2.53;;
51838;SDS011;37886;53.174;6.368;2022-10-16T00:46:13;10.93;;;2.25;;
51838;SDS011;37886;53.174;6.368;2022-10-16T00:48:55;11.82;;;2.70;;
51838;SDS011;37886;53.174;6.368;2022-10-16T00:51:35;8.13;;;2.25;;
51838;SDS011;37886;53.174;6.368;2022-10-16T00:54:13;9.27;;;2.40;;
51838;SDS011;37886;53.174;6.368;2022-10-16T00:56:42;9.85;;;2.25;;
51838;SDS011;37886;53.174;6.368;2022-10-16T00:59:20;5.78;;;1.98;;
51838;SDS011;37886;53.174;6.368;2022-10-16T01:01:54;10.68;;;2.08;;
51838;SDS011;37886;53.174;6.368;2022-10-16T01:04:21;10.65;;;2.35;;
51838;SDS011;37886;53.174;6.368;2022-10-16T01:06:54;9.38;;;2.10;;
51838;SDS011;37886;53.174;6.368;2022-10-16T01:12:49;6.95;;;2.03;;
51838;SDS011;37886;53.174;6.368;2022-10-16T01:15:32;5.90;;;2.03;;
51838;SDS011;37886;53.174;6.368;2022-10-16T01:18:08;8.43;;;1.98;;
51838;SDS011;37886;53.174;6.368;2022-10-16T01:20:44;9.00;;;2.10;;
51838;SDS011;37886;53.174;6.368;2022-10-16T01:26:07;5.38;;;1.67;;
51838;SDS011;37886;53.174;6.368;2022-10-16T01:31:22;10.60;;;1.80;;
51838;SDS011;37886;53.174;6.368;2022-10-16T01:33:54;14.67;;;2.60;;
51838;SDS011;37886;53.174;6.368;2022-10-16T01:36:26;7.07;;;2.13;;
51838;SDS011;37886;53.174;6.368;2022-10-16T01:38:56;11.80;;;2.65;;
51838;SDS011;37886;53.174;6.368;2022-10-16T01:41:28;8.75;;;2.10;;
51838;SDS011;37886;53.174;6.368;2022-10-16T01:44:09;5.57;;;2.00;;
51838;SDS011;37886;53.174;6.368;2022-10-16T01:46:39;8.00;;;2.20;;
51838;SDS011;37886;53.174;6.368;2022-10-16T01:49:06;5.07;;;1.95;;
51838;SDS011;37886;53.174;6.368;2022-10-16T01:51:34;8.27;;;2.25;;
51838;SDS011;37886;53.174;6.368;2022-10-16T01:54:02;8.40;;;2.35;;
51838;SDS011;37886;53.174;6.368;2022-10-16T01:56:29;10.95;;;3.03;;
51838;SDS011;37886;53.174;6.368;2022-10-16T01:58:58;7.90;;;2.08;;
51838;SDS011;37886;53.174;6.368;2022-10-16T02:01:32;7.85;;;2.92;;
51838;SDS011;37886;53.174;6.368;2022-10-16T02:04:02;7.38;;;2.55;;
51838;SDS011;37886;53.174;6.368;2022-10-16T02:06:36;7.43;;;2.22;;
51838;SDS011;37886;53.174;6.368;2022-10-16T02:09:02;9.32;;;2.15;;
51838;SDS011;37886;53.174;6.368;2022-10-16T02:11:28;7.70;;;2.30;;
51838;SDS011;37886;53.174;6.368;2022-10-16T02:13:55;8.48;;;2.70;;
51838;SDS011;37886;53.174;6.368;2022-10-16T02:16:34;8.57;;;2.47;;
51838;SDS011;37886;53.174;6.368;2022-10-16T02:19:02;7.13;;;2.30;;
51838;SDS011;37886;53.174;6.368;2022-10-16T02:21:29;6.30;;;2.53;;
51838;SDS011;37886;53.174;6.368;2022-10-16T02:26:41;5.05;;;2.13;;
51838;SDS011;37886;53.174;6.368;2022-10-16T02:29:17;6.10;;;2.05;;
51838;SDS011;37886;53.174;6.368;2022-10-16T02:34:14;4.65;;;2.08;;
51838;SDS011;37886;53.174;6.368;2022-10-16T02:36:43;4.55;;;2.15;;
51838;SDS011;37886;53.174;6.368;2022-10-16T02:39:11;7.00;;;2.00;;
51838;SDS011;37886;53.174;6.368;2022-10-16T02:41:38;5.07;;;1.98;;
51838;SDS011;37886;53.174;6.368;2022-10-16T02:44:04;7.28;;;2.38;;
51838;SDS011;37886;53.174;6.368;2022-10-16T02:46:30;4.30;;;1.88;;
51838;SDS011;37886;53.174;6.368;2022-10-16T02:48:56;9.27;;;2.33;;
51838;SDS011;37886;53.174;6.368;2022-10-16T02:51:21;4.70;;;1.77;;
51838;SDS011;37886;53.174;6.368;2022-10-16T02:53:47;9.55;;;3.40;;
51838;SDS011;37886;53.174;6.368;2022-10-16T02:56:13;3.47;;;2.00;;
51838;SDS011;37886;53.174;6.368;2022-10-16T02:58:38;5.88;;;1.85;;
51838;SDS011;37886;53.174;6.368;2022-10-16T03:01:04;4.80;;;1.80;;
51838;SDS011;37886;53.174;6.368;2022-10-16T03:03:30;7.25;;;1.95;;
51838;SDS011;37886;53.174;6.368;2022-10-16T03:05:55;5.90;;;2.00;;
51838;SDS011;37886;53.174;6.368;2022-10-16T03:08:21;6.78;;;2.08;;
51838;SDS011;37886;53.174;6.368;2022-10-16T03:10:50;9.15;;;1.98;;
51838;SDS011;37886;53.174;6.368;2022-10-16T03:13:16;2.50;;;1.58;;
51838;SDS011;37886;53.174;6.368;2022-10-16T03:15:42;4.00;;;1.80;;
51838;SDS011;37886;53.174;6.368;2022-10-16T03:18:08;4.10;;;1.77;;
51838;SDS011;37886;53.174;6.368;2022-10-16T03:20:34;7.47;;;1.90;;
51838;SDS011;37886;53.174;6.368;2022-10-16T03:23:00;11.50;;;2.20;;
51838;SDS011;37886;53.174;6.368;2022-10-16T03:25:27;7.22;;;2.30;;
51838;SDS011;37886;53.174;6.368;2022-10-16T03:27:53;5.80;;;2.00;;
51838;SDS011;37886;53.174;6.368;2022-10-16T03:30:19;7.82;;;1.90;;
51838;SDS011;37886;53.174;6.368;2022-10-16T03:32:45;8.55;;;2.15;;
51838;SDS011;37886;53.174;6.368;2022-10-16T03:35:12;4.40;;;1.98;;
51838;SDS011;37886;53.174;6.368;2022-10-16T03:37:38;5.10;;;2.22;;
51838;SDS011;37886;53.174;6.368;2022-10-16T03:40:04;7.68;;;1.67;;
51838;SDS011;37886;53.174;6.368;2022-10-16T03:42:30;6.97;;;1.88;;
51838;SDS011;37886;53.174;6.368;2022-10-16T03:44:56;2.85;;;1.75;;
51838;SDS011;37886;53.174;6.368;2022-10-16T03:47:21;4.78;;;2.35;;
51838;SDS011;37886;53.174;6.368;2022-10-16T03:49:49;4.07;;;1.60;;
51838;SDS011;37886;53.174;6.368;2022-10-16T03:52:15;3.08;;;1.70;;
51838;SDS011;37886;53.174;6.368;2022-10-16T03:54:41;6.60;;;1.90;;
51838;SDS011;37886;53.174;6.368;2022-10-16T03:57:06;5.20;;;2.03;;
51838;SDS011;37886;53.174;6.368;2022-10-16T03:59:32;6.80;;;2.03;;
51838;SDS011;37886;53.174;6.368;2022-10-16T04:01:58;4.57;;;2.00;;
51838;SDS011;37886;53.174;6.368;2022-10-16T04:04:26;4.90;;;2.13;;
51838;SDS011;37886;53.174;6.368;2022-10-16T04:06:54;7.43;;;2.20;;
51838;SDS011;37886;53.174;6.368;2022-10-16T04:09:20;6.22;;;2.20;;
51838;SDS011;37886;53.174;6.368;2022-10-16T04:11:46;7.70;;;2.20;;
51838;SDS011;37886;53.174;6.368;2022-10-16T04:14:12;10.75;;;2.60;;
51838;SDS011;37886;53.174;6.368;2022-10-16T04:16:38;5.13;;;2.08;;
51838;SDS011;37886;53.174;6.368;2022-10-16T04:19:03;8.75;;;2.15;;
51838;SDS011;37886;53.174;6.368;2022-10-16T04:21:29;7.45;;;2.47;;
51838;SDS011;37886;53.174;6.368;2022-10-16T04:23:55;8.52;;;2.70;;
51838;SDS011;37886;53.174;6.368;2022-10-16T04:26:21;7.22;;;2.30;;
51838;SDS011;37886;53.174;6.368;2022-10-16T04:28:46;8.68;;;2.35;;
51838;SDS011;37886;53.174;6.368;2022-10-16T04:31:12;7.50;;;2.40;;
51838;SDS011;37886;53.174;6.368;2022-10-16T04:33:38;5.72;;;2.40;;
51838;SDS011;37886;53.174;6.368;2022-10-16T04:36:04;7.60;;;2.47;;
51838;SDS011;37886;53.174;6.368;2022-10-16T04:38:29;6.95;;;2.92;;
51838;SDS011;37886;53.174;6.368;2022-10-16T04:40:55;6.40;;;2.22;;
51838;SDS011;37886;53.174;6.368;2022-10-16T04:43:21;6.38;;;2.75;;
51838;SDS011;37886;53.174;6.368;2022-10-16T04:45:47;7.18;;;2.20;;
51838;SDS011;37886;53.174;6.368;2022-10-16T04:48:15;4.07;;;2.28;;
51838;SDS011;37886;53.174;6.368;2022-10-16T04:50:41;9.05;;;2.78;;
51838;SDS011;37886;53.174;6.368;2022-10-16T04:53:07;7.65;;;2.78;;
51838;SDS011;37886;53.174;6.368;2022-10-16T04:55:33;5.07;;;2.38;;
51838;SDS011;37886;53.174;6.368;2022-10-16T04:57:59;5.57;;;2.33;;
51838;SDS011;37886;53.174;6.368;2022-10-16T05:00:25;9.45;;;2.50;;
51838;SDS011;37886;53.174;6.368;2022-10-16T05:02:50;6.80;;;2.63;;
51838;SDS011;37886;53.174;6.368;2022-10-16T05:05:17;12.27;;;2.78;;
51838;SDS011;37886;53.174;6.368;2022-10-16T05:07:44;8.20;;;2.33;;
51838;SDS011;37886;53.174;6.368;2022-10-16T05:10:11;8.13;;;2.83;;
51838;SDS011;37886;53.174;6.368;2022-10-16T05:12:37;6.40;;;2.65;;
51838;SDS011;37886;53.174;6.368;2022-10-16T05:15:03;6.78;;;2.75;;
51838;SDS011;37886;53.174;6.368;2022-10-16T05:17:29;6.85;;;2.65;;
51838;SDS011;37886;53.174;6.368;2022-10-16T05:19:55;6.95;;;2.80;;
51838;SDS011;37886;53.174;6.368;2022-10-16T05:22:21;5.18;;;2.88;;
51838;SDS011;37886;53.174;6.368;2022-10-16T05:24:46;5.93;;;2.80;;
51838;SDS011;37886;53.174;6.368;2022-10-16T05:27:12;6.72;;;2.78;;
51838;SDS011;37886;53.174;6.368;2022-10-16T05:29:47;4.40;;;2.50;;
51838;SDS011;37886;53.174;6.368;2022-10-16T05:32:14;8.40;;;2.57;;
51838;SDS011;37886;53.174;6.368;2022-10-16T05:34:41;6.85;;;2.85;;
51838;SDS011;37886;53.174;6.368;2022-10-16T05:37:07;6.57;;;2.78;;
51838;SDS011;37886;53.174;6.368;2022-10-16T05:39:34;5.82;;;3.28;;
51838;SDS011;37886;53.174;6.368;2022-10-16T05:41:59;7.85;;;3.17;;
51838;SDS011;37886;53.174;6.368;2022-10-16T05:44:25;5.50;;;2.80;;
51838;SDS011;37886;53.174;6.368;2022-10-16T05:46:51;8.00;;;3.13;;
51838;SDS011;37886;53.174;6.368;2022-10-16T05:49:17;8.35;;;3.20;;
51838;SDS011;37886;53.174;6.368;2022-10-16T05:51:42;5.35;;;2.70;;
51838;SDS011;37886;53.174;6.368;2022-10-16T05:54:08;8.13;;;3.17;;
51838;SDS011;37886;53.174;6.368;2022-10-16T05:56:34;8.95;;;3.30;;
51838;SDS011;37886;53.174;6.368;2022-10-16T05:58:59;7.55;;;3.20;;
51838;SDS011;37886;53.174;6.368;2022-10-16T06:01:25;8.20;;;3.30;;
51838;SDS011;37886;53.174;6.368;2022-10-16T06:03:51;8.02;;;3.40;;
51838;SDS011;37886;53.174;6.368;2022-10-16T06:06:18;7.00;;;3.00;;
51838;SDS011;37886;53.174;6.368;2022-10-16T06:08:45;5.15;;;3.17;;
51838;SDS011;37886;53.174;6.368;2022-10-16T06:11:16;9.50;;;3.30;;
51838;SDS011;37886;53.174;6.368;2022-10-16T06:13:50;13.43;;;3.80;;
51838;SDS011;37886;53.174;6.368;2022-10-16T06:16:20;8.20;;;3.20;;
51838;SDS011;37886;53.174;6.368;2022-10-16T06:18:46;7.60;;;3.35;;
51838;SDS011;37886;53.174;6.368;2022-10-16T06:21:14;10.40;;;3.28;;
51838;SDS011;37886;53.174;6.368;2022-10-16T06:23:42;6.68;;;3.55;;
51838;SDS011;37886;53.174;6.368;2022-10-16T06:26:09;8.70;;;3.63;;
51838;SDS011;37886;53.174;6.368;2022-10-16T06:28:37;8.15;;;3.42;;
51838;SDS011;37886;53.174;6.368;2022-10-16T06:31:04;10.18;;;3.83;;
51838;SDS011;37886;53.174;6.368;2022-10-16T06:33:30;9.35;;;3.70;;
51838;SDS011;37886;53.174;6.368;2022-10-16T06:36:03;7.32;;;3.00;;
51838;SDS011;37886;53.174;6.368;2022-10-16T06:38:34;7.75;;;2.88;;
51838;SDS011;37886;53.174;6.368;2022-10-16T06:41:00;8.80;;;3.67;;
51838;SDS011;37886;53.174;6.368;2022-10-16T06:43:28;10.43;;;3.15;;
51838;SDS011;37886;53.174;6.368;2022-10-16T06:45:57;10.25;;;3.58;;
51838;SDS011;37886;53.174;6.368;2022-10-16T06:48:27;6.30;;;3.30;;
51838;SDS011;37886;53.174;6.368;2022-10-16T06:51:00;7.72;;;2.90;;
51838;SDS011;37886;53.174;6.368;2022-10-16T06:53:29;8.35;;;2.97;;
51838;SDS011;37886;53.174;6.368;2022-10-16T06:55:56;11.77;;;3.15;;
51838;SDS011;37886;53.174;6.368;2022-10-16T06:58:22;9.50;;;2.63;;
51838;SDS011;37886;53.174;6.368;2022-10-16T07:00:48;6.45;;;3.10;;
51838;SDS011;37886;53.174;6.368;2022-10-16T07:03:19;7.75;;;3.20;;
51838;SDS011;37886;53.174;6.368;2022-10-16T07:05:45;7.75;;;3.40;;
51838;SDS011;37886;53.174;6.368;2022-10-16T07:08:13;11.10;;;3.20;;
51838;SDS011;37886;53.174;6.368;2022-10-16T07:10:39;9.32;;;2.90;;
51838;SDS011;37886;53.174;6.368;2022-10-16T07:13:05;8.27;;;3.08;;
51838;SDS011;37886;53.174;6.368;2022-10-16T07:15:32;10.00;;;2.67;;
51838;SDS011;37886;53.174;6.368;2022-10-16T07:17:58;9.00;;;3.20;;
51838;SDS011;37886;53.174;6.368;2022-10-16T07:20:24;8.65;;;2.97;;
51838;SDS011;37886;53.174;6.368;2022-10-16T07:22:53;6.20;;;2.72;;
51838;SDS011;37886;53.174;6.368;2022-10-16T07:25:19;6.38;;;2.88;;
51838;SDS011;37886;53.174;6.368;2022-10-16T07:27:44;6.88;;;2.58;;
51838;SDS011;37886;53.174;6.368;2022-10-16T07:30:10;7.45;;;2.85;;
51838;SDS011;37886;53.174;6.368;2022-10-16T07:32:36;12.63;;;2.75;;
51838;SDS011;37886;53.174;6.368;2022-10-16T07:35:03;9.43;;;3.30;;
51838;SDS011;37886;53.174;6.368;2022-10-16T07:37:29;8.95;;;3.42;;
51838;SDS011;37886;53.174;6.368;2022-10-16T07:39:54;7.32;;;3.03;;
51838;SDS011;37886;53.174;6.368;2022-10-16T07:42:20;8.63;;;3.53;;
51838;SDS011;37886;53.174;6.368;2022-10-16T07:44:46;9.77;;;3.15;;
51838;SDS011;37886;53.174;6.368;2022-10-16T07:47:12;8.00;;;2.95;;
51838;SDS011;37886;53.174;6.368;2022-10-16T07:49:38;5.03;;;3.35;;
51838;SDS011;37886;53.174;6.368;2022-10-16T07:52:03;7.47;;;3.50;;
51838;SDS011;37886;53.174;6.368;2022-10-16T07:54:29;8.07;;;3.28;;
51838;SDS011;37886;53.174;6.368;2022-10-16T07:56:55;8.50;;;3.80;;
51838;SDS011;37886;53.174;6.368;2022-10-16T07:59:21;9.80;;;3.80;;
51838;SDS011;37886;53.174;6.368;2022-10-16T08:01:46;7.65;;;3.65;;
51838;SDS011;37886;53.174;6.368;2022-10-16T08:04:17;8.45;;;3.78;;
51838;SDS011;37886;53.174;6.368;2022-10-16T08:06:43;6.32;;;4.05;;
51838;SDS011;37886;53.174;6.368;2022-10-16T08:09:09;6.10;;;3.55;;
51838;SDS011;37886;53.174;6.368;2022-10-16T08:11:34;7.55;;;4.03;;
51838;SDS011;37886;53.174;6.368;2022-10-16T08:14:00;10.05;;;4.28;;
51838;SDS011;37886;53.174;6.368;2022-10-16T08:16:26;8.25;;;3.78;;
51838;SDS011;37886;53.174;6.368;2022-10-16T08:18:52;9.40;;;3.67;;
51838;SDS011;37886;53.174;6.368;2022-10-16T08:21:18;8.27;;;4.00;;
51838;SDS011;37886;53.174;6.368;2022-10-16T08:23:48;14.13;;;3.50;;
51838;SDS011;37886;53.174;6.368;2022-10-16T08:26:14;8.77;;;3.40;;
51838;SDS011;37886;53.174;6.368;2022-10-16T08:28:40;7.82;;;2.80;;
51838;SDS011;37886;53.174;6.368;2022-10-16T08:31:10;7.82;;;2.60;;
51838;SDS011;37886;53.174;6.368;2022-10-16T08:33:38;9.25;;;3.13;;
51838;SDS011;37886;53.174;6.368;2022-10-16T08:36:05;8.27;;;2.60;;
51838;SDS011;37886;53.174;6.368;2022-10-16T08:38:31;6.72;;;2.65;;
51838;SDS011;37886;53.174;6.368;2022-10-16T08:46:43;7.93;;;2.25;;
51838;SDS011;37886;53.174;6.368;2022-10-16T08:49:14;6.95;;;1.67;;
51838;SDS011;37886;53.174;6.368;2022-10-16T08:51:40;7.97;;;2.03;;
51838;SDS011;37886;53.174;6.368;2022-10-16T08:54:14;9.13;;;2.17;;
51838;SDS011;37886;53.174;6.368;2022-10-16T08:56:41;16.70;;;2.55;;
51838;SDS011;37886;53.174;6.368;2022-10-16T08:59:17;5.78;;;1.60;;
51838;SDS011;37886;53.174;6.368;2022-10-16T09:01:44;10.07;;;1.77;;
51838;SDS011;37886;53.174;6.368;2022-10-16T09:04:38;4.95;;;1.98;;
51838;SDS011;37886;53.174;6.368;2022-10-16T09:07:20;5.82;;;1.90;;
51838;SDS011;37886;53.174;6.368;2022-10-16T09:12:53;9.95;;;2.50;;
51838;SDS011;37886;53.174;6.368;2022-10-16T09:21:37;9.68;;;3.47;;
51838;SDS011;37886;53.174;6.368;2022-10-16T09:23:48;12.13;;;2.17;;
51838;SDS011;37886;53.174;6.368;2022-10-16T09:26:15;10.82;;;2.30;;
51838;SDS011;37886;53.174;6.368;2022-10-16T09:28:43;10.98;;;2.17;;
51838;SDS011;37886;53.174;6.368;2022-10-16T09:31:12;9.70;;;2.42;;
51838;SDS011;37886;53.174;6.368;2022-10-16T09:33:43;14.40;;;3.38;;
51838;SDS011;37886;53.174;6.368;2022-10-16T09:36:13;12.48;;;2.05;;
51838;SDS011;37886;53.174;6.368;2022-10-16T09:38:39;10.48;;;2.15;;
51838;SDS011;37886;53.174;6.368;2022-10-16T09:41:13;9.75;;;2.72;;
51838;SDS011;37886;53.174;6.368;2022-10-16T09:46:21;13.00;;;2.35;;
51838;SDS011;37886;53.174;6.368;2022-10-16T09:48:48;11.18;;;2.28;;
51838;SDS011;37886;53.174;6.368;2022-10-16T09:51:19;9.85;;;2.10;;
51838;SDS011;37886;53.174;6.368;2022-10-16T09:53:57;17.08;;;2.92;;
51838;SDS011;37886;53.174;6.368;2022-10-16T09:56:26;17.63;;;2.90;;
51838;SDS011;37886;53.174;6.368;2022-10-16T09:58:55;13.07;;;2.30;;
51838;SDS011;37886;53.174;6.368;2022-10-16T10:01:39;15.35;;;3.20;;
51838;SDS011;37886;53.174;6.368;2022-10-16T10:04:09;16.60;;;2.72;;
51838;SDS011;37886;53.174;6.368;2022-10-16T10:06:45;11.43;;;2.10;;
51838;SDS011;37886;53.174;6.368;2022-10-16T10:09:16;11.20;;;2.15;;
51838;SDS011;37886;53.174;6.368;2022-10-16T10:11:55;15.50;;;3.40;;
51838;SDS011;37886;53.174;6.368;2022-10-16T10:19:30;13.13;;;2.40;;
51838;SDS011;37886;53.174;6.368;2022-10-16T10:22:20;17.98;;;2.65;;
51838;SDS011;37886;53.174;6.368;2022-10-16T10:24:55;13.48;;;2.55;;
51838;SDS011;37886;53.174;6.368;2022-10-16T10:35:38;20.02;;;2.90;;
51838;SDS011;37886;53.174;6.368;2022-10-16T10:52:36;19.23;;;3.45;;
51838;SDS011;37886;53.174;6.368;2022-10-16T10:55:19;17.83;;;2.50;;
51838;SDS011;37886;53.174;6.368;2022-10-16T11:06:28;12.75;;;2.58;;
51838;SDS011;37886;53.174;6.368;2022-10-16T11:11:54;14.48;;;2.42;;
51838;SDS011;37886;53.174;6.368;2022-10-16T11:17:31;15.07;;;2.72;;
51838;SDS011;37886;53.174;6.368;2022-10-16T11:25:33;14.93;;;3.00;;
51838;SDS011;37886;53.174;6.368;2022-10-16T11:28:14;15.57;;;2.88;;
51838;SDS011;37886;53.174;6.368;2022-10-16T11:34:27;17.33;;;2.85;;
51838;SDS011;37886;53.174;6.368;2022-10-16T11:36:39;16.80;;;2.85;;
51838;SDS011;37886;53.174;6.368;2022-10-16T11:39:29;12.20;;;2.15;;
51838;SDS011;37886;53.174;6.368;2022-10-16T11:42:09;10.63;;;2.40;;
51838;SDS011;37886;53.174;6.368;2022-10-16T11:52:55;13.38;;;2.70;;
51838;SDS011;37886;53.174;6.368;2022-10-16T11:55:26;18.05;;;3.53;;
51838;SDS011;37886;53.174;6.368;2022-10-16T12:07:07;14.05;;;2.55;;
51838;SDS011;37886;53.174;6.368;2022-10-16T12:09:39;18.02;;;2.83;;
51838;SDS011;37886;53.174;6.368;2022-10-16T12:15:20;12.10;;;2.72;;
51838;SDS011;37886;53.174;6.368;2022-10-16T12:17:48;16.42;;;3.42;;
51838;SDS011;37886;53.174;6.368;2022-10-16T12:20:19;14.75;;;3.15;;
51838;SDS011;37886;53.174;6.368;2022-10-16T12:27:56;15.13;;;3.58;;
51838;SDS011;37886;53.174;6.368;2022-10-16T12:30:28;19.30;;;2.65;;
51838;SDS011;37886;53.174;6.368;2022-10-16T12:32:57;14.15;;;3.33;;
51838;SDS011;37886;53.174;6.368;2022-10-16T12:35:29;15.63;;;2.92;;
51838;SDS011;37886;53.174;6.368;2022-10-16T12:38:04;17.33;;;2.78;;
51838;SDS011;37886;53.174;6.368;2022-10-16T12:40:33;18.67;;;3.08;;
51838;SDS011;37886;53.174;6.368;2022-10-16T12:45:45;18.27;;;3.10;;
51838;SDS011;37886;53.174;6.368;2022-10-16T12:48:23;17.85;;;3.03;;
51838;SDS011;37886;53.174;6.368;2022-10-16T12:50:49;19.88;;;3.00;;
51838;SDS011;37886;53.174;6.368;2022-10-16T12:53:36;12.85;;;2.80;;
51838;SDS011;37886;53.174;6.368;2022-10-16T13:19:06;14.27;;;2.67;;
51838;SDS011;37886;53.174;6.368;2022-10-16T13:30:19;15.60;;;3.25;;
51838;SDS011;37886;53.174;6.368;2022-10-16T13:32:49;12.57;;;2.30;;
51838;SDS011;37886;53.174;6.368;2022-10-16T13:35:21;13.63;;;2.65;;
51838;SDS011;37886;53.174;6.368;2022-10-16T13:38:02;11.70;;;2.80;;
51838;SDS011;37886;53.174;6.368;2022-10-16T13:40:47;12.77;;;2.63;;
51838;SDS011;37886;53.174;6.368;2022-10-16T13:43:18;14.90;;;2.30;;
51838;SDS011;37886;53.174;6.368;2022-10-16T13:45:59;13.00;;;3.55;;
51838;SDS011;37886;53.174;6.368;2022-10-16T13:48:27;13.45;;;2.40;;
51838;SDS011;37886;53.174;6.368;2022-10-16T13:51:01;15.93;;;2.85;;
51838;SDS011;37886;53.174;6.368;2022-10-16T13:53:38;13.63;;;2.88;;
51838;SDS011;37886;53.174;6.368;2022-10-16T13:56:06;14.90;;;3.00;;
51838;SDS011;37886;53.174;6.368;2022-10-16T13:58:35;13.90;;;3.13;;
51838;SDS011;37886;53.174;6.368;2022-10-16T14:01:02;15.38;;;3.08;;
51838;SDS011;37886;53.174;6.368;2022-10-16T14:03:33;12.23;;;2.80;;
51838;SDS011;37886;53.174;6.368;2022-10-16T14:06:02;10.02;;;2.80;;
51838;SDS011;37886;53.174;6.368;2022-10-16T14:08:31;12.38;;;2.55;;
51838;SDS011;37886;53.174;6.368;2022-10-16T14:10:58;13.43;;;3.63;;
51838;SDS011;37886;53.174;6.368;2022-10-16T14:13:30;13.60;;;2.67;;
51838;SDS011;37886;53.174;6.368;2022-10-16T14:15:59;14.57;;;3.03;;
51838;SDS011;37886;53.174;6.368;2022-10-16T14:18:30;13.82;;;2.75;;
51838;SDS011;37886;53.174;6.368;2022-10-16T14:21:02;15.45;;;2.75;;
51838;SDS011;37886;53.174;6.368;2022-10-16T14:23:36;16.38;;;3.72;;
51838;SDS011;37886;53.174;6.368;2022-10-16T14:28:35;11.52;;;2.33;;
51838;SDS011;37886;53.174;6.368;2022-10-16T14:31:13;15.10;;;2.92;;
51838;SDS011;37886;53.174;6.368;2022-10-16T14:33:56;10.50;;;2.60;;
51838;SDS011;37886;53.174;6.368;2022-10-16T14:36:23;14.07;;;2.38;;
51838;SDS011;37886;53.174;6.368;2022-10-16T14:39:02;17.17;;;3.38;;
51838;SDS011;37886;53.174;6.368;2022-10-16T14:41:30;13.23;;;3.47;;
51838;SDS011;37886;53.174;6.368;2022-10-16T14:44:01;15.60;;;3.30;;
51838;SDS011;37886;53.174;6.368;2022-10-16T14:46:36;16.90;;;2.90;;
51838;SDS011;37886;53.174;6.368;2022-10-16T14:51:36;19.60;;;3.50;;
51838;SDS011;37886;53.174;6.368;2022-10-16T14:54:08;11.65;;;2.85;;
51838;SDS011;37886;53.174;6.368;2022-10-16T14:56:53;18.98;;;2.80;;
51838;SDS011;37886;53.174;6.368;2022-10-16T15:01:52;15.88;;;3.15;;
51838;SDS011;37886;53.174;6.368;2022-10-16T15:04:18;16.63;;;3.10;;
51838;SDS011;37886;53.174;6.368;2022-10-16T15:06:44;14.63;;;2.63;;
51838;SDS011;37886;53.174;6.368;2022-10-16T15:09:10;12.77;;;3.08;;
51838;SDS011;37886;53.174;6.368;2022-10-16T15:11:36;11.82;;;2.63;;
51838;SDS011;37886;53.174;6.368;2022-10-16T15:14:02;14.80;;;3.63;;
51838;SDS011;37886;53.174;6.368;2022-10-16T15:16:29;21.08;;;3.13;;
51838;SDS011;37886;53.174;6.368;2022-10-16T15:18:55;18.88;;;3.65;;
51838;SDS011;37886;53.174;6.368;2022-10-16T15:21:22;19.27;;;3.22;;
51838;SDS011;37886;53.174;6.368;2022-10-16T15:23:54;17.58;;;2.75;;
51838;SDS011;37886;53.174;6.368;2022-10-16T15:26:21;13.25;;;2.55;;
51838;SDS011;37886;53.174;6.368;2022-10-16T15:28:51;18.30;;;3.57;;
51838;SDS011;37886;53.174;6.368;2022-10-16T15:31:17;14.73;;;2.50;;
51838;SDS011;37886;53.174;6.368;2022-10-16T15:33:43;13.82;;;2.67;;
51838;SDS011;37886;53.174;6.368;2022-10-16T15:36:09;17.17;;;2.97;;
51838;SDS011;37886;53.174;6.368;2022-10-16T15:38:35;13.98;;;2.92;;
51838;SDS011;37886;53.174;6.368;2022-10-16T15:41:00;16.10;;;2.55;;
51838;SDS011;37886;53.174;6.368;2022-10-16T15:43:26;12.57;;;2.40;;
51838;SDS011;37886;53.174;6.368;2022-10-16T15:46:06;14.13;;;2.60;;
51838;SDS011;37886;53.174;6.368;2022-10-16T15:48:36;20.20;;;3.55;;
51838;SDS011;37886;53.174;6.368;2022-10-16T15:51:04;16.92;;;2.90;;
51838;SDS011;37886;53.174;6.368;2022-10-16T15:53:31;14.82;;;2.85;;
51838;SDS011;37886;53.174;6.368;2022-10-16T15:55:56;18.35;;;3.15;;
51838;SDS011;37886;53.174;6.368;2022-10-16T15:58:22;16.80;;;3.17;;
51838;SDS011;37886;53.174;6.368;2022-10-16T16:00:58;12.98;;;2.60;;
51838;SDS011;37886;53.174;6.368;2022-10-16T16:03:32;15.88;;;2.80;;
51838;SDS011;37886;53.174;6.368;2022-10-16T16:06:03;16.02;;;2.90;;
51838;SDS011;37886;53.174;6.368;2022-10-16T16:08:33;12.98;;;2.78;;
51838;SDS011;37886;53.174;6.368;2022-10-16T16:10:59;11.82;;;2.67;;
51838;SDS011;37886;53.174;6.368;2022-10-16T16:13:26;11.77;;;2.40;;
51838;SDS011;37886;53.174;6.368;2022-10-16T16:15:52;14.32;;;2.78;;
51838;SDS011;37886;53.174;6.368;2022-10-16T16:18:18;12.50;;;2.30;;
51838;SDS011;37886;53.174;6.368;2022-10-16T16:20:43;16.13;;;2.33;;
51838;SDS011;37886;53.174;6.368;2022-10-16T16:23:09;18.38;;;3.03;;
51838;SDS011;37886;53.174;6.368;2022-10-16T16:25:35;15.18;;;2.95;;
51838;SDS011;37886;53.174;6.368;2022-10-16T16:28:01;18.27;;;3.85;;
51838;SDS011;37886;53.174;6.368;2022-10-16T16:30:26;20.75;;;4.15;;
51838;SDS011;37886;53.174;6.368;2022-10-16T16:32:52;22.00;;;4.63;;
51838;SDS011;37886;53.174;6.368;2022-10-16T16:35:18;10.55;;;2.90;;
51838;SDS011;37886;53.174;6.368;2022-10-16T16:37:44;15.25;;;3.80;;
51838;SDS011;37886;53.174;6.368;2022-10-16T16:40:09;15.85;;;4.43;;
51838;SDS011;37886;53.174;6.368;2022-10-16T16:42:35;20.23;;;4.07;;
51838;SDS011;37886;53.174;6.368;2022-10-16T16:45:01;13.68;;;3.35;;
51838;SDS011;37886;53.174;6.368;2022-10-16T16:47:26;14.52;;;4.20;;
51838;SDS011;37886;53.174;6.368;2022-10-16T16:49:52;21.15;;;3.83;;
51838;SDS011;37886;53.174;6.368;2022-10-16T16:52:18;20.65;;;3.65;;
51838;SDS011;37886;53.174;6.368;2022-10-16T16:54:43;12.85;;;3.30;;
51838;SDS011;37886;53.174;6.368;2022-10-16T16:57:16;15.65;;;4.15;;
51838;SDS011;37886;53.174;6.368;2022-10-16T16:59:43;13.95;;;3.80;;
51838;SDS011;37886;53.174;6.368;2022-10-16T17:02:09;26.42;;;4.03;;
51838;SDS011;37886;53.174;6.368;2022-10-16T17:04:35;25.75;;;3.78;;
51838;SDS011;37886;53.174;6.368;2022-10-16T17:07:00;13.82;;;3.47;;
51838;SDS011;37886;53.174;6.368;2022-10-16T17:09:26;17.92;;;3.30;;
51838;SDS011;37886;53.174;6.368;2022-10-16T17:11:52;16.50;;;3.42;;
51838;SDS011;37886;53.174;6.368;2022-10-16T17:14:18;16.85;;;3.60;;
51838;SDS011;37886;53.174;6.368;2022-10-16T17:16:44;18.40;;;3.00;;
51838;SDS011;37886;53.174;6.368;2022-10-16T17:19:11;17.70;;;3.35;;
51838;SDS011;37886;53.174;6.368;2022-10-16T17:21:39;15.63;;;2.83;;